sensor_id;sensor_type;location;lat;lon;timestamp;pressure;altitude;pressure_sealevel;temperature;humidity
45357;BME280;31092;51.924;21.448;2023-04-16T00:02:21;100093.09;;;7.61;100.00
45357;BME280;31092;51.924;21.448;2023-04-16T00:04:46;100106.50;;;7.61;100.00
45357;BME280;31092;51.924;21.448;2023-04-16T00:07:11;100091.25;;;7.62;100.00
45357;BME280;31092;51.924;21.448;2023-04-16T00:09:37;100109.03;;;7.63;100.00
45357;BME280;31092;51.924;21.448;2023-04-16T00:12:02;100111.72;;;7.63;100.00
45357;BME280;31092;51.924;21.448;2023-04-16T00:14:28;100110.69;;;7.64;100.00
45357;BME280;31092;51.924;21.448;2023-04-16T00:16:53;100109.88;;;7.63;100.00
45357;BME280;31092;51.924;21.448;2023-04-16T00:19:18;100108.84;;;7.64;100.00
45357;BME280;31092;51.924;21.448;2023-04-16T00:21:44;100099.97;;;7.64;100.00
45357;BME280;31092;51.924;21.448;2023-04-16T00:24:09;100104.50;;;7.63;100.00
45357;BME280;31092;51.924;21.448;2023-04-16T00:26:35;100096.63;;;7.62;100.00
45357;BME280;31092;51.924;21.448;2023-04-16T00:29:00;100093.94;;;7.62;100.00
45357;BME280;31092;51.924;21.448;2023-04-16T00:31:29;100090.41;;;7.61;100.00
45357;BME280;31092;51.924;21.448;2023-04-16T00:33:55;100090.56;;;7.60;100.00
45357;BME280;31092;51.924;21.448;2023-04-16T00:36:22;100089.72;;;7.59;100.00
45357;BME280;31092;51.924;21.448;2023-04-16T00:38:47;100089.00;;;7.57;100.00
45357;BME280;31092;51.924;21.448;2023-04-16T00:41:12;100084.66;;;7.56;100.00
45357;BME280;31092;51.924;21.448;2023-04-16T00:43:38;100092.69;;;7.56;100.00
45357;BME280;31092;51.924;21.448;2023-04-16T00:46:03;100094.38;;;7.57;100.00
45357;BME280;31092;51.924;21.448;2023-04-16T00:48:29;100100.59;;;7.58;100.00
45357;BME280;31092;51.924;21.448;2023-04-16T00:50:57;100104.13;;;7.58;100.00
45357;BME280;31092;51.924;21.448;2023-04-16T00:53:23;100097.75;;;7.59;100.00
45357;BME280;31092;51.924;21.448;2023-04-16T00:55:48;100102.13;;;7.60;100.00
45357;BME280;31092;51.924;21.448;2023-04-16T00:58:14;100102.13;;;7.60;100.00
45357;BME280;31092;51.924;21.448;2023-04-16T01:00:40;100104.66;;;7.62;100.00
45357;BME280;31092;51.924;21.448;2023-04-16T01:03:05;100105.63;;;7.61;100.00
45357;BME280;31092;51.924;21.448;2023-04-16T01:05:31;100096.75;;;7.60;100.00
45357;BME280;31092;51.924;21.448;2023-04-16T01:07:59;100091.84;;;7.56;100.00
45357;BME280;31092;51.924;21.448;2023-04-16T01:10:25;100100.06;;;7.54;100.00
45357;BME280;31092;51.924;21.448;2023-04-16T01:12:50;100100.91;;;7.55;100.00
45357;BME280;31092;51.924;21.448;2023-04-16T01:15:15;100093.81;;;7.54;100.00
45357;BME280;31092;51.924;21.448;2023-04-16T01:17:41;100090.19;;;7.55;100.00
45357;BME280;31092;51.924;21.448;2023-04-16T01:20:08;100092.16;;;7.53;100.00
45357;BME280;31092;51.924;21.448;2023-04-16T01:22:33;100095.28;;;7.48;100.00
45357;BME280;31092;51.924;21.448;2023-04-16T01:24:59;100098.25;;;7.45;100.00
45357;BME280;31092;51.924;21.448;2023-04-16T01:27:24;100106.31;;;7.45;100.00
45357;BME280;31092;51.924;21.448;2023-04-16T01:29:51;100108.13;;;7.44;100.00
45357;BME280;31092;51.924;21.448;2023-04-16T01:32:16;100107.97;;;7.46;100.00
45357;BME280;31092;51.924;21.448;2023-04-16T01:34:42;100113.34;;;7.46;100.00
45357;BME280;31092;51.924;21.448;2023-04-16T01:37:07;100111.22;;;7.50;100.00
45357;BME280;31092;51.924;21.448;2023-04-16T01:39:32;100112.03;;;7.50;100.00
45357;BME280;31092;51.924;21.448;2023-04-16T01:41:58;100114.59;;;7.52;100.00
45357;BME280;31092;51.924;21.448;2023-04-16T01:44:23;100110.22;;;7.51;100.00
45357;BME280;31092;51.924;21.448;2023-04-16T01:46:49;100113.75;;;7.51;100.00
45357;BME280;31092;51.924;21.448;2023-04-16T01:49:15;100120.94;;;7.51;100.00
45357;BME280;31092;51.924;21.448;2023-04-16T01:51:40;100120.94;;;7.51;100.00
45357;BME280;31092;51.924;21.448;2023-04-16T01:54:06;100127.16;;;7.51;100.00
45357;BME280;31092;51.924;21.448;2023-04-16T01:56:31;100133.34;;;7.52;100.00
45357;BME280;31092;51.924;21.448;2023-04-16T01:58:56;100130.66;;;7.52;100.00
45357;BME280;31092;51.924;21.448;2023-04-16T02:01:22;100132.50;;;7.51;100.00
45357;BME280;31092;51.924;21.448;2023-04-16T02:03:48;100138.72;;;7.52;100.00
45357;BME280;31092;51.924;21.448;2023-04-16T02:06:14;100135.03;;;7.53;100.00
45357;BME280;31092;51.924;21.448;2023-04-16T02:08:39;100133.19;;;7.53;100.00
45357;BME280;31092;51.924;21.448;2023-04-16T02:11:05;100135.88;;;7.53;100.00
45357;BME280;31092;51.924;21.448;2023-04-16T02:13:30;100150.97;;;7.54;100.00
45357;BME280;31092;51.924;21.448;2023-04-16T02:15:56;100139.56;;;7.52;100.00
45357;BME280;31092;51.924;21.448;2023-04-16T02:18:21;100151.13;;;7.53;100.00
45357;BME280;31092;51.924;21.448;2023-04-16T02:20:47;100141.22;;;7.53;100.00
45357;BME280;31092;51.924;21.448;2023-04-16T02:23:13;100154.63;;;7.53;100.00
45357;BME280;31092;51.924;21.448;2023-04-16T02:25:43;100145.91;;;7.51;100.00
45357;BME280;31092;51.924;21.448;2023-04-16T02:28:08;100150.28;;;7.52;100.00
45357;BME280;31092;51.924;21.448;2023-04-16T02:30:35;100160.00;;;7.53;100.00
45357;BME280;31092;51.924;21.448;2023-04-16T02:33:00;100150.28;;;7.52;100.00
45357;BME280;31092;51.924;21.448;2023-04-16T02:35:27;100152.78;;;7.54;100.00
45357;BME280;31092;51.924;21.448;2023-04-16T02:37:53;100150.09;;;7.54;100.00
45357;BME280;31092;51.924;21.448;2023-04-16T02:40:18;100143.91;;;7.53;100.00
45357;BME280;31092;51.924;21.448;2023-04-16T02:42:43;100151.94;;;7.53;100.00
45357;BME280;31092;51.924;21.448;2023-04-16T02:45:09;100154.63;;;7.53;100.00
45357;BME280;31092;51.924;21.448;2023-04-16T02:47:35;100156.63;;;7.51;100.00
45357;BME280;31092;51.924;21.448;2023-04-16T02:50:00;100160.44;;;7.49;100.00
45357;BME280;31092;51.924;21.448;2023-04-16T02:52:26;100159.59;;;7.48;100.00
45357;BME280;31092;51.924;21.448;2023-04-16T02:54:51;100155.94;;;7.49;100.00
45357;BME280;31092;51.924;21.448;2023-04-16T02:57:16;100152.25;;;7.50;100.00
45357;BME280;31092;51.924;21.448;2023-04-16T02:59:42;100153.94;;;7.51;100.00
45357;BME280;31092;51.924;21.448;2023-04-16T03:02:07;100159.16;;;7.53;100.00
45357;BME280;31092;51.924;21.448;2023-04-16T03:04:32;100159.84;;;7.55;100.00
45357;BME280;31092;51.924;21.448;2023-04-16T03:06:58;100163.38;;;7.55;100.00
45357;BME280;31092;51.924;21.448;2023-04-16T03:09:23;100162.38;;;7.56;100.00
45357;BME280;31092;51.924;21.448;2023-04-16T03:11:48;100158.69;;;7.57;100.00
45357;BME280;31092;51.924;21.448;2023-04-16T03:14:14;100166.59;;;7.59;100.00
45357;BME280;31092;51.924;21.448;2023-04-16T03:16:39;100171.13;;;7.58;100.00
45357;BME280;31092;51.924;21.448;2023-04-16T03:19:04;100163.22;;;7.57;100.00
45357;BME280;31092;51.924;21.448;2023-04-16T03:21:30;100164.38;;;7.54;100.00
45357;BME280;31092;51.924;21.448;2023-04-16T03:23:55;100162.00;;;7.51;100.00
45357;BME280;31092;51.924;21.448;2023-04-16T03:26:21;100162.13;;;7.50;100.00
45357;BME280;31092;51.924;21.448;2023-04-16T03:28:46;100166.66;;;7.49;100.00
45357;BME280;31092;51.924;21.448;2023-04-16T03:31:11;100172.00;;;7.49;100.00
45357;BME280;31092;51.924;21.448;2023-04-16T03:33:37;100180.88;;;7.50;100.00
45357;BME280;31092;51.924;21.448;2023-04-16T03:36:02;100172.84;;;7.50;100.00
45357;BME280;31092;51.924;21.448;2023-04-16T03:38:28;100169.47;;;7.48;100.00
45357;BME280;31092;51.924;21.448;2023-04-16T03:40:53;100170.63;;;7.45;100.00
45357;BME280;31092;51.924;21.448;2023-04-16T03:43:18;100174.13;;;7.46;100.00
45357;BME280;31092;51.924;21.448;2023-04-16T03:45:44;100177.81;;;7.44;100.00
45357;BME280;31092;51.924;21.448;2023-04-16T03:48:09;100178.66;;;7.45;100.00
45357;BME280;31092;51.924;21.448;2023-04-16T03:50:36;100175.97;;;7.45;100.00
45357;BME280;31092;51.924;21.448;2023-04-16T03:53:01;100177.81;;;7.44;100.00
45357;BME280;31092;51.924;21.448;2023-04-16T03:55:27;100181.34;;;7.45;100.00
45357;BME280;31092;51.924;21.448;2023-04-16T03:57:52;100185.69;;;7.46;100.00
45357;BME280;31092;51.924;21.448;2023-04-16T04:00:18;100193.72;;;7.46;100.00
45357;BME280;31092;51.924;21.448;2023-04-16T04:02:48;100190.91;;;7.48;100.00
45357;BME280;31092;51.924;21.448;2023-04-16T04:05:25;100206.72;;;7.51;100.00
45357;BME280;31092;51.924;21.448;2023-04-16T04:07:50;100208.94;;;7.55;100.00
45357;BME280;31092;51.924;21.448;2023-04-16T04:10:16;100213.19;;;7.58;100.00
45357;BME280;31092;51.924;21.448;2023-04-16T04:12:41;100212.19;;;7.59;100.00
45357;BME280;31092;51.924;21.448;2023-04-16T04:15:07;100226.25;;;7.61;100.00
45357;BME280;31092;51.924;21.448;2023-04-16T04:17:32;100221.78;;;7.61;100.00
45357;BME280;31092;51.924;21.448;2023-04-16T04:19:58;100229.50;;;7.64;100.00
45357;BME280;31092;51.924;21.448;2023-04-16T04:22:23;100228.53;;;7.65;100.00
45357;BME280;31092;51.924;21.448;2023-04-16T04:24:48;100229.06;;;7.69;100.00
45357;BME280;31092;51.924;21.448;2023-04-16T04:27:14;100229.75;;;7.71;100.00
45357;BME280;31092;51.924;21.448;2023-04-16T04:29:39;100228.06;;;7.70;100.00
45357;BME280;31092;51.924;21.448;2023-04-16T04:32:04;100235.09;;;7.71;100.00
45357;BME280;31092;51.924;21.448;2023-04-16T04:34:30;100243.69;;;7.75;100.00
45357;BME280;31092;51.924;21.448;2023-04-16T04:36:55;100237.22;;;7.77;100.00
45357;BME280;31092;51.924;21.448;2023-04-16T04:39:21;100238.75;;;7.80;100.00
45357;BME280;31092;51.924;21.448;2023-04-16T04:41:46;100240.44;;;7.81;100.00
45357;BME280;31092;51.924;21.448;2023-04-16T04:44:12;100238.75;;;7.80;100.00
45357;BME280;31092;51.924;21.448;2023-04-16T04:46:38;100235.91;;;7.81;100.00
45357;BME280;31092;51.924;21.448;2023-04-16T04:49:03;100229.72;;;7.81;100.00
45357;BME280;31092;51.924;21.448;2023-04-16T04:51:29;100236.06;;;7.80;100.00
45357;BME280;31092;51.924;21.448;2023-04-16T04:53:54;100238.59;;;7.81;100.00
45357;BME280;31092;51.924;21.448;2023-04-16T04:56:20;100239.97;;;7.85;100.00
45357;BME280;31092;51.924;21.448;2023-04-16T04:58:45;100236.00;;;7.89;100.00
45357;BME280;31092;51.924;21.448;2023-04-16T05:01:10;100240.94;;;7.94;100.00
45357;BME280;31092;51.924;21.448;2023-04-16T05:03:39;100236.97;;;7.98;100.00
45357;BME280;31092;51.924;21.448;2023-04-16T05:06:05;100248.25;;;8.02;100.00
45357;BME280;31092;51.924;21.448;2023-04-16T05:08:31;100242.88;;;8.02;100.00
45357;BME280;31092;51.924;21.448;2023-04-16T05:10:56;100240.75;;;8.05;100.00
45357;BME280;31092;51.924;21.448;2023-04-16T05:13:21;100251.84;;;8.10;100.00
45357;BME280;31092;51.924;21.448;2023-04-16T05:15:47;100245.53;;;8.11;100.00
45357;BME280;31092;51.924;21.448;2023-04-16T05:18:12;100252.28;;;8.15;100.00
45357;BME280;31092;51.924;21.448;2023-04-16T05:20:37;100252.66;;;8.21;100.00
45357;BME280;31092;51.924;21.448;2023-04-16T05:23:02;100249.38;;;8.27;100.00
45357;BME280;31092;51.924;21.448;2023-04-16T05:25:28;100254.16;;;8.33;100.00
45357;BME280;31092;51.924;21.448;2023-04-16T05:27:53;100249.31;;;8.36;100.00
45357;BME280;31092;51.924;21.448;2023-04-16T05:30:18;100254.25;;;8.41;100.00
45357;BME280;31092;51.924;21.448;2023-04-16T05:32:44;100260.16;;;8.45;100.00
45357;BME280;31092;51.924;21.448;2023-04-16T05:35:09;100259.56;;;8.51;100.00
45357;BME280;31092;51.924;21.448;2023-04-16T05:37:35;100247.66;;;8.53;100.00
45357;BME280;31092;51.924;21.448;2023-04-16T05:40:00;100257.25;;;8.56;100.00
45357;BME280;31092;51.924;21.448;2023-04-16T05:42:26;100248.06;;;8.58;100.00
45357;BME280;31092;51.924;21.448;2023-04-16T05:44:51;100251.97;;;8.64;100.00
45357;BME280;31092;51.924;21.448;2023-04-16T05:47:17;100250.16;;;8.65;100.00
45357;BME280;31092;51.924;21.448;2023-04-16T05:49:42;100250.50;;;8.70;100.00
45357;BME280;31092;51.924;21.448;2023-04-16T05:52:07;100252.06;;;8.72;100.00
45357;BME280;31092;51.924;21.448;2023-04-16T05:54:33;100242.84;;;8.75;100.00
45357;BME280;31092;51.924;21.448;2023-04-16T05:56:59;100254.28;;;8.77;100.00
45357;BME280;31092;51.924;21.448;2023-04-16T05:59:25;100257.81;;;8.77;100.00
45357;BME280;31092;51.924;21.448;2023-04-16T06:01:50;100260.72;;;8.84;100.00
45357;BME280;31092;51.924;21.448;2023-04-16T06:04:16;100263.09;;;8.87;100.00
45357;BME280;31092;51.924;21.448;2023-04-16T06:06:41;100260.94;;;8.91;100.00
45357;BME280;31092;51.924;21.448;2023-04-16T06:09:06;100265.63;;;8.88;100.00
45357;BME280;31092;51.924;21.448;2023-04-16T06:11:32;100273.06;;;8.95;100.00
45357;BME280;31092;51.924;21.448;2023-04-16T06:13:57;100265.84;;;8.95;100.00
45357;BME280;31092;51.924;21.448;2023-04-16T06:16:22;100269.59;;;9.02;100.00
45357;BME280;31092;51.924;21.448;2023-04-16T06:18:50;100275.19;;;9.09;100.00
45357;BME280;31092;51.924;21.448;2023-04-16T06:21:16;100269.84;;;9.09;100.00
45357;BME280;31092;51.924;21.448;2023-04-16T06:23:41;100279.25;;;9.13;100.00
45357;BME280;31092;51.924;21.448;2023-04-16T06:26:06;100278.78;;;9.18;100.00
45357;BME280;31092;51.924;21.448;2023-04-16T06:28:32;100290.19;;;9.11;100.00
45357;BME280;31092;51.924;21.448;2023-04-16T06:30:58;100295.03;;;9.08;100.00
45357;BME280;31092;51.924;21.448;2023-04-16T06:33:23;100281.41;;;9.09;100.00
45357;BME280;31092;51.924;21.448;2023-04-16T06:35:48;100286.31;;;9.14;100.00
45357;BME280;31092;51.924;21.448;2023-04-16T06:38:14;100288.16;;;9.14;100.00
45357;BME280;31092;51.924;21.448;2023-04-16T06:40:39;100284.88;;;9.20;100.00
45357;BME280;31092;51.924;21.448;2023-04-16T06:43:05;100283.41;;;9.25;100.00
45357;BME280;31092;51.924;21.448;2023-04-16T06:45:30;100287.78;;;9.26;100.00
45357;BME280;31092;51.924;21.448;2023-04-16T06:47:55;100289.31;;;9.29;100.00
45357;BME280;31092;51.924;21.448;2023-04-16T06:50:23;100295.00;;;9.26;100.00
45357;BME280;31092;51.924;21.448;2023-04-16T06:52:48;100290.28;;;9.28;100.00
45357;BME280;31092;51.924;21.448;2023-04-16T06:55:14;100300.59;;;9.32;100.00
45357;BME280;31092;51.924;21.448;2023-04-16T06:57:39;100297.25;;;9.39;100.00
45357;BME280;31092;51.924;21.448;2023-04-16T07:00:05;100300.16;;;9.45;100.00
45357;BME280;31092;51.924;21.448;2023-04-16T07:02:30;100300.56;;;9.50;100.00
45357;BME280;31092;51.924;21.448;2023-04-16T07:04:55;100303.38;;;9.49;100.00
45357;BME280;31092;51.924;21.448;2023-04-16T07:07:21;100304.75;;;9.53;100.00
45357;BME280;31092;51.924;21.448;2023-04-16T07:09:46;100305.75;;;9.52;100.00
45357;BME280;31092;51.924;21.448;2023-04-16T07:12:11;100310.84;;;9.55;100.00
45357;BME280;31092;51.924;21.448;2023-04-16T07:14:37;100312.00;;;9.52;100.00
45357;BME280;31092;51.924;21.448;2023-04-16T07:17:02;100316.38;;;9.53;100.00
45357;BME280;31092;51.924;21.448;2023-04-16T07:19:28;100320.28;;;9.59;100.00
45357;BME280;31092;51.924;21.448;2023-04-16T07:21:56;100319.13;;;9.62;100.00
45357;BME280;31092;51.924;21.448;2023-04-16T07:24:22;100321.63;;;9.63;100.00
45357;BME280;31092;51.924;21.448;2023-04-16T07:26:47;100332.94;;;9.67;100.00
45357;BME280;31092;51.924;21.448;2023-04-16T07:29:12;100321.03;;;9.69;100.00
45357;BME280;31092;51.924;21.448;2023-04-16T07:31:37;100335.00;;;9.73;100.00
45357;BME280;31092;51.924;21.448;2023-04-16T07:34:03;100331.16;;;9.75;100.00
45357;BME280;31092;51.924;21.448;2023-04-16T07:36:28;100326.31;;;9.79;100.00
45357;BME280;31092;51.924;21.448;2023-04-16T07:38:54;100331.03;;;9.85;100.00
45357;BME280;31092;51.924;21.448;2023-04-16T07:41:20;100333.41;;;9.88;100.00
45357;BME280;31092;51.924;21.448;2023-04-16T07:43:45;100335.94;;;9.90;100.00
45357;BME280;31092;51.924;21.448;2023-04-16T07:46:11;100330.09;;;9.94;100.00
45357;BME280;31092;51.924;21.448;2023-04-16T07:48:36;100330.91;;;9.95;100.00
45357;BME280;31092;51.924;21.448;2023-04-16T07:51:01;100343.88;;;9.99;100.00
45357;BME280;31092;51.924;21.448;2023-04-16T07:53:26;100343.44;;;10.04;100.00
45357;BME280;31092;51.924;21.448;2023-04-16T07:55:52;100349.34;;;10.07;100.00
45357;BME280;31092;51.924;21.448;2023-04-16T07:58:17;100349.84;;;10.11;100.00
45357;BME280;31092;51.924;21.448;2023-04-16T08:00:42;100354.56;;;10.17;100.00
45357;BME280;31092;51.924;21.448;2023-04-16T08:03:09;100352.81;;;10.26;100.00
45357;BME280;31092;51.924;21.448;2023-04-16T08:05:35;100350.47;;;10.31;100.00
45357;BME280;31092;51.924;21.448;2023-04-16T08:08:00;100349.63;;;10.30;100.00
45357;BME280;31092;51.924;21.448;2023-04-16T08:10:25;100350.13;;;10.26;100.00
45357;BME280;31092;51.924;21.448;2023-04-16T08:12:52;100345.88;;;10.23;100.00
45357;BME280;31092;51.924;21.448;2023-04-16T08:15:17;100346.94;;;10.30;100.00
45357;BME280;31092;51.924;21.448;2023-04-16T08:17:43;100350.56;;;10.47;100.00
45357;BME280;31092;51.924;21.448;2023-04-16T08:20:08;100352.31;;;10.65;100.00
45357;BME280;31092;51.924;21.448;2023-04-16T08:22:33;100352.50;;;10.79;100.00
45357;BME280;31092;51.924;21.448;2023-04-16T08:24:59;100351.88;;;10.94;100.00
45357;BME280;31092;51.924;21.448;2023-04-16T08:27:25;100347.16;;;11.04;100.00
45357;BME280;31092;51.924;21.448;2023-04-16T08:29:50;100354.59;;;11.18;100.00
45357;BME280;31092;51.924;21.448;2023-04-16T08:32:15;100348.03;;;11.29;100.00
45357;BME280;31092;51.924;21.448;2023-04-16T08:34:41;100355.28;;;11.45;100.00
45357;BME280;31092;51.924;21.448;2023-04-16T08:37:06;100348.38;;;11.59;100.00
45357;BME280;31092;51.924;21.448;2023-04-16T08:39:32;100353.06;;;11.73;100.00
45357;BME280;31092;51.924;21.448;2023-04-16T08:41:57;100350.72;;;11.86;100.00
45357;BME280;31092;51.924;21.448;2023-04-16T08:44:27;100355.94;;;11.96;100.00
45357;BME280;31092;51.924;21.448;2023-04-16T08:46:55;100355.50;;;12.32;100.00
45357;BME280;31092;51.924;21.448;2023-04-16T08:49:23;100361.41;;;12.35;100.00
45357;BME280;31092;51.924;21.448;2023-04-16T08:51:49;100359.09;;;12.24;100.00
45357;BME280;31092;51.924;21.448;2023-04-16T08:54:18;100357.22;;;12.25;100.00
45357;BME280;31092;51.924;21.448;2023-04-16T08:56:45;100361.63;;;12.17;100.00
45357;BME280;31092;51.924;21.448;2023-04-16T08:59:12;100363.16;;;12.12;100.00
45357;BME280;31092;51.924;21.448;2023-04-16T09:01:37;100363.38;;;12.41;100.00
45357;BME280;31092;51.924;21.448;2023-04-16T09:04:05;100367.44;;;13.08;100.00
45357;BME280;31092;51.924;21.448;2023-04-16T09:06:31;100362.09;;;13.69;100.00
45357;BME280;31092;51.924;21.448;2023-04-16T09:08:57;100359.47;;;14.13;100.00
45357;BME280;31092;51.924;21.448;2023-04-16T09:11:23;100373.00;;;13.60;100.00
45357;BME280;31092;51.924;21.448;2023-04-16T09:13:49;100372.31;;;13.12;100.00
45357;BME280;31092;51.924;21.448;2023-04-16T09:16:16;100375.34;;;12.86;100.00
45357;BME280;31092;51.924;21.448;2023-04-16T09:18:42;100376.63;;;12.67;100.00
45357;BME280;31092;51.924;21.448;2023-04-16T09:21:10;100380.03;;;12.61;100.00
45357;BME280;31092;51.924;21.448;2023-04-16T09:23:36;100378.34;;;12.60;100.00
45357;BME280;31092;51.924;21.448;2023-04-16T09:26:03;100377.69;;;12.58;100.00
45357;BME280;31092;51.924;21.448;2023-04-16T09:28:38;100379.97;;;12.69;100.00
45357;BME280;31092;51.924;21.448;2023-04-16T09:31:11;100389.41;;;12.82;100.00
45357;BME280;31092;51.924;21.448;2023-04-16T09:33:37;100380.53;;;12.96;100.00
45357;BME280;31092;51.924;21.448;2023-04-16T09:36:02;100378.31;;;13.23;100.00
45357;BME280;31092;51.924;21.448;2023-04-16T09:41:32;100384.22;;;13.72;100.00
45357;BME280;31092;51.924;21.448;2023-04-16T09:44:03;100379.78;;;13.94;100.00
45357;BME280;31092;51.924;21.448;2023-04-16T09:46:30;100375.97;;;13.88;100.00
45357;BME280;31092;51.924;21.448;2023-04-16T09:48:56;100387.84;;;13.64;100.00
45357;BME280;31092;51.924;21.448;2023-04-16T09:51:21;100398.16;;;13.46;100.00
45357;BME280;31092;51.924;21.448;2023-04-16T09:53:46;100390.00;;;13.69;100.00
45357;BME280;31092;51.924;21.448;2023-04-16T09:56:15;100378.06;;;14.31;100.00
45357;BME280;31092;51.924;21.448;2023-04-16T09:58:40;100380.50;;;14.70;100.00
45357;BME280;31092;51.924;21.448;2023-04-16T10:01:07;100376.66;;;14.65;100.00
45357;BME280;31092;51.924;21.448;2023-04-16T10:03:33;100380.31;;;14.57;100.00
45357;BME280;31092;51.924;21.448;2023-04-16T10:06:00;100388.44;;;14.42;100.00
45357;BME280;31092;51.924;21.448;2023-04-16T10:08:34;100393.03;;;14.27;100.00
45357;BME280;31092;51.924;21.448;2023-04-16T10:11:01;100389.38;;;14.20;100.00
45357;BME280;31092;51.924;21.448;2023-04-16T10:13:26;100396.91;;;13.95;100.00
45357;BME280;31092;51.924;21.448;2023-04-16T10:15:54;100403.69;;;13.90;100.00
45357;BME280;31092;51.924;21.448;2023-04-16T10:18:20;100398.13;;;14.22;100.00
45357;BME280;31092;51.924;21.448;2023-04-16T10:20:46;100399.75;;;14.31;100.00
45357;BME280;31092;51.924;21.448;2023-04-16T10:23:11;100409.22;;;14.12;100.00
45357;BME280;31092;51.924;21.448;2023-04-16T10:25:37;100396.94;;;14.39;100.00
45357;BME280;31092;51.924;21.448;2023-04-16T10:28:02;100400.78;;;14.45;100.00
45357;BME280;31092;51.924;21.448;2023-04-16T10:30:28;100405.63;;;14.34;100.00
45357;BME280;31092;51.924;21.448;2023-04-16T10:32:54;100414.75;;;14.19;100.00
45357;BME280;31092;51.924;21.448;2023-04-16T10:35:20;100416.09;;;13.85;100.00
45357;BME280;31092;51.924;21.448;2023-04-16T10:37:45;100409.69;;;13.63;100.00
45357;BME280;31092;51.924;21.448;2023-04-16T10:40:21;100406.84;;;13.79;100.00
45357;BME280;31092;51.924;21.448;2023-04-16T10:42:53;100401.19;;;14.04;100.00
45357;BME280;31092;51.924;21.448;2023-04-16T10:45:19;100403.44;;;14.15;100.00
45357;BME280;31092;51.924;21.448;2023-04-16T10:47:45;100413.28;;;14.16;100.00
45357;BME280;31092;51.924;21.448;2023-04-16T10:50:16;100400.56;;;14.17;100.00
45357;BME280;31092;51.924;21.448;2023-04-16T10:52:42;100408.41;;;14.11;100.00
45357;BME280;31092;51.924;21.448;2023-04-16T10:55:13;100413.34;;;14.08;100.00
45357;BME280;31092;51.924;21.448;2023-04-16T10:57:39;100410.84;;;14.06;100.00
45357;BME280;31092;51.924;21.448;2023-04-16T11:00:19;100412.28;;;13.94;100.00
45357;BME280;31092;51.924;21.448;2023-04-16T11:02:45;100408.47;;;13.88;100.00
45357;BME280;31092;51.924;21.448;2023-04-16T11:05:10;100414.94;;;14.02;100.00
45357;BME280;31092;51.924;21.448;2023-04-16T11:07:36;100411.59;;;14.30;100.00
45357;BME280;31092;51.924;21.448;2023-04-16T11:10:04;100402.94;;;14.64;100.00
45357;BME280;31092;51.924;21.448;2023-04-16T11:12:33;100407.69;;;14.77;100.00
45357;BME280;31092;51.924;21.448;2023-04-16T11:15:00;100405.28;;;14.67;100.00
45357;BME280;31092;51.924;21.448;2023-04-16T11:17:33;100415.75;;;14.55;100.00
45357;BME280;31092;51.924;21.448;2023-04-16T11:20:00;100414.97;;;14.32;100.00
45357;BME280;31092;51.924;21.448;2023-04-16T11:22:26;100415.91;;;14.24;100.00
45357;BME280;31092;51.924;21.448;2023-04-16T11:24:54;100410.69;;;14.37;100.00
45357;BME280;31092;51.924;21.448;2023-04-16T11:27:21;100405.66;;;14.64;100.00
45357;BME280;31092;51.924;21.448;2023-04-16T11:29:55;100398.88;;;14.90;100.00
45357;BME280;31092;51.924;21.448;2023-04-16T11:32:20;100398.69;;;14.91;100.00
45357;BME280;31092;51.924;21.448;2023-04-16T11:34:46;100407.16;;;14.52;100.00
45357;BME280;31092;51.924;21.448;2023-04-16T11:37:11;100412.25;;;14.32;100.00
45357;BME280;31092;51.924;21.448;2023-04-16T11:39:47;100407.88;;;14.31;100.00
45357;BME280;31092;51.924;21.448;2023-04-16T11:42:17;100420.28;;;14.40;100.00
45357;BME280;31092;51.924;21.448;2023-04-16T11:44:43;100405.09;;;14.54;100.00
45357;BME280;31092;51.924;21.448;2023-04-16T11:47:08;100406.09;;;14.68;100.00
45357;BME280;31092;51.924;21.448;2023-04-16T11:49:33;100403.84;;;14.86;100.00
45357;BME280;31092;51.924;21.448;2023-04-16T11:51:59;100398.34;;;15.16;100.00
45357;BME280;31092;51.924;21.448;2023-04-16T11:54:24;100402.44;;;15.26;100.00
45357;BME280;31092;51.924;21.448;2023-04-16T11:56:50;100397.78;;;15.42;100.00
45357;BME280;31092;51.924;21.448;2023-04-16T11:59:18;100398.75;;;15.34;100.00
45357;BME280;31092;51.924;21.448;2023-04-16T12:01:48;100402.16;;;15.64;100.00
45357;BME280;31092;51.924;21.448;2023-04-16T12:04:14;100397.59;;;15.86;100.00
45357;BME280;31092;51.924;21.448;2023-04-16T12:06:51;100392.91;;;16.30;100.00
45357;BME280;31092;51.924;21.448;2023-04-16T12:09:26;100392.53;;;16.39;100.00
45357;BME280;31092;51.924;21.448;2023-04-16T12:11:51;100392.13;;;16.42;100.00
45357;BME280;31092;51.924;21.448;2023-04-16T12:14:17;100395.38;;;16.24;100.00
45357;BME280;31092;51.924;21.448;2023-04-16T12:16:42;100392.03;;;16.22;100.00
45357;BME280;31092;51.924;21.448;2023-04-16T12:19:10;100394.97;;;16.27;100.00
45357;BME280;31092;51.924;21.448;2023-04-16T12:21:36;100388.41;;;16.15;100.00
45357;BME280;31092;51.924;21.448;2023-04-16T12:24:01;100396.81;;;16.20;100.00
45357;BME280;31092;51.924;21.448;2023-04-16T12:26:34;100387.84;;;15.70;100.00
45357;BME280;31092;51.924;21.448;2023-04-16T12:29:13;100395.31;;;15.47;100.00
45357;BME280;31092;51.924;21.448;2023-04-16T12:31:38;100395.53;;;15.45;100.00
45357;BME280;31092;51.924;21.448;2023-04-16T12:34:03;100393.66;;;15.46;100.00